createdAt,value
2019-05-30T00:02:12.500Z,177.83
2019-05-30T00:06:23.254Z,173.15
2019-05-30T00:10:33.440Z,183.57
2019-05-30T00:14:43.721Z,182.30
2019-05-30T00:18:56.619Z,176.93
2019-05-30T00:23:06.878Z,175.30
2019-05-30T00:27:17.278Z,177.93
2019-05-30T00:31:27.574Z,172.90
2019-05-30T00:35:37.756Z,177.07
2019-05-30T00:39:47.951Z,173.17
2019-05-30T00:43:58.165Z,175.57
2019-05-30T00:48:09.423Z,175.30
2019-05-30T00:52:19.623Z,172.33
2019-05-30T00:56:29.927Z,173.67
2019-05-30T01:00:44.166Z,174.50
2019-05-30T01:04:56.959Z,173.03
2019-05-30T01:09:07.550Z,174.70
2019-05-30T01:13:17.847Z,178.43
2019-05-30T01:17:29.646Z,175.30
2019-05-30T01:21:40.878Z,174.53
2019-05-30T01:25:52.816Z,180.37
2019-05-30T01:30:05.630Z,177.97
2019-05-30T01:34:16.094Z,174.83
2019-05-30T01:38:26.956Z,176.50
2019-05-30T01:42:38.291Z,171.57
2019-05-30T01:46:48.481Z,174.60
2019-05-30T01:51:00.321Z,170.90
2019-05-30T01:55:10.932Z,174.80
2019-05-30T01:59:21.215Z,174.00
2019-05-30T02:03:33.345Z,174.07
2019-05-30T02:07:43.543Z,173.27
2019-05-30T02:11:53.735Z,176.30
2019-05-30T02:16:04.020Z,176.67
2019-05-30T02:20:14.756Z,179.73
2019-05-30T02:24:25.122Z,178.23
2019-05-30T02:28:35.446Z,188.03
2019-05-30T02:32:46.836Z,175.17
2019-05-30T02:36:58.571Z,174.93
2019-05-30T02:41:12.250Z,174.77
2019-05-30T02:45:23.787Z,176.30
2019-05-30T02:49:35.526Z,175.17
2019-05-30T02:53:45.766Z,171.83
2019-05-30T02:57:57.394Z,174.47
2019-05-30T03:02:12.369Z,175.93
2019-05-30T03:06:19.717Z,176.73
2019-05-30T03:10:30.981Z,175.47
2019-05-30T03:14:41.399Z,173.97
2019-05-30T03:18:52.266Z,172.83
2019-05-30T03:23:04.814Z,174.23
2019-05-30T03:27:14.478Z,171.90
2019-05-30T03:31:29.206Z,170.13
2019-05-30T03:35:42.901Z,172.03
2019-05-30T03:39:49.577Z,170.33
2019-05-30T03:44:00.053Z,174.12
2019-05-30T03:48:14.249Z,172.50
2019-05-30T03:52:27.677Z,176.40
2019-05-30T03:56:59.006Z,179.07
2019-05-30T04:01:14.815Z,174.33
2019-05-30T04:05:31.153Z,181.80
2019-05-30T04:09:43.994Z,181.37
2019-05-30T04:14:00.017Z,177.03
2019-05-30T04:18:12.519Z,175.80
2019-05-30T04:22:23.478Z,178.53
2019-05-30T04:26:33.905Z,177.47
2019-05-30T04:30:44.204Z,183.00
2019-05-30T04:34:54.440Z,185.77
2019-05-30T04:39:08.631Z,180.47
2019-05-30T04:43:20.217Z,186.73
2019-05-30T04:47:30.929Z,180.50
2019-05-30T04:51:41.274Z,179.37
2019-05-30T04:55:51.580Z,177.97
2019-05-30T05:00:03.522Z,183.13
2019-05-30T05:04:15.349Z,182.30
2019-05-30T05:08:25.728Z,187.73
2019-05-30T05:12:36.142Z,188.87
2019-05-30T05:16:46.503Z,184.67
2019-05-30T05:20:56.709Z,186.83
2019-05-30T05:25:07.989Z,179.07
2019-05-30T05:29:18.324Z,185.47
2019-05-30T05:33:28.560Z,186.10
2019-05-30T05:37:38.911Z,183.77
2019-05-30T05:41:49.250Z,193.80
2019-05-30T05:45:59.542Z,184.50
2019-05-30T05:50:10.562Z,191.23
2019-05-30T05:54:21.367Z,191.67
2019-05-30T05:58:31.688Z,195.47
2019-05-30T06:02:41.885Z,194.23
2019-05-30T06:06:52.189Z,188.73
2019-05-30T06:11:02.510Z,195.90
2019-05-30T06:15:12.986Z,188.37
2019-05-30T06:19:23.287Z,180.15
2019-05-30T06:23:33.791Z,199.15
2019-05-30T06:27:45.243Z,188.87
2019-05-30T06:31:55.535Z,189.47
2019-05-30T06:36:05.928Z,190.30
2019-05-30T06:40:17.046Z,190.33
2019-05-30T06:44:28.086Z,188.62
2019-05-30T06:48:38.515Z,188.57
2019-05-30T06:52:48.886Z,199.97
2019-05-30T06:56:59.190Z,205.27
2019-05-30T07:01:09.635Z,192.47
2019-05-30T07:05:22.921Z,212.37
2019-05-30T07:09:33.732Z,206.17
2019-05-30T07:13:44.052Z,193.70
2019-05-30T07:17:54.408Z,197.43
2019-05-30T07:22:05.244Z,193.22
2019-05-30T07:26:17.941Z,189.52
2019-05-30T07:30:28.321Z,188.57
2019-05-30T07:34:39.439Z,191.43
2019-05-30T07:38:49.843Z,188.85
2019-05-30T07:43:00.199Z,191.20
2019-05-30T07:47:10.506Z,189.28
2019-05-30T07:51:24.326Z,187.75
2019-05-30T07:55:33.187Z,191.57
2019-05-30T07:59:43.590Z,191.03
2019-05-30T08:03:53.927Z,196.95
2019-05-30T08:08:04.790Z,197.75
2019-05-30T08:12:15.253Z,198.82
2019-05-30T08:16:25.556Z,196.98
2019-05-30T08:20:35.985Z,201.37
2019-05-30T08:24:46.446Z,199.30
2019-05-30T08:28:56.833Z,204.53
2019-05-30T08:33:08.677Z,193.68
2019-05-30T08:37:19.067Z,187.15
2019-05-30T08:41:29.357Z,188.40
2019-05-30T08:45:40.030Z,197.02
2019-05-30T08:49:50.399Z,198.13
2019-05-30T08:54:00.711Z,201.18
2019-05-30T08:58:11.248Z,198.70
2019-05-30T09:02:21.817Z,198.50
2019-05-30T09:06:32.334Z,199.32
2019-05-30T09:10:42.717Z,191.35
2019-05-30T09:14:52.990Z,189.57
2019-05-30T09:19:03.388Z,196.82
2019-05-30T09:23:13.698Z,193.68
2019-05-30T09:27:23.970Z,194.23
2019-05-30T09:31:34.284Z,202.53
2019-05-30T09:35:44.961Z,219.28
2019-05-30T09:39:55.292Z,198.02
2019-05-30T09:44:05.772Z,191.73
2019-05-30T09:48:16.079Z,191.65
2019-05-30T09:52:26.379Z,196.18
2019-05-30T09:56:36.611Z,195.25
2019-05-30T10:00:50.292Z,191.85
2019-05-30T10:05:00.887Z,192.13
2019-05-30T10:09:12.171Z,200.47
2019-05-30T10:13:22.631Z,197.35
2019-05-30T10:17:32.821Z,205.43
2019-05-30T10:21:43.073Z,206.47
2019-05-30T10:25:53.858Z,200.18
2019-05-30T10:30:10.608Z,193.76
2019-05-30T10:34:20.940Z,197.60
2019-05-30T10:38:31.164Z,196.15
2019-05-30T10:42:41.536Z,195.43
2019-05-30T10:46:52.844Z,196.65
2019-05-30T10:51:03.263Z,196.35
2019-05-30T10:55:14.040Z,197.20
2019-05-30T10:59:24.416Z,192.70
2019-05-30T11:03:34.729Z,193.80
2019-05-30T11:08:05.553Z,196.45
2019-05-30T11:12:11.574Z,196.57
2019-05-30T11:16:21.871Z,195.47
2019-05-30T11:20:32.474Z,241.40
2019-05-30T11:24:42.919Z,204.23
2019-05-30T11:28:54.674Z,202.72
2019-05-30T11:33:05.980Z,202.75
2019-05-30T11:41:28.370Z,193.87
2019-05-30T11:45:38.984Z,192.62
2019-05-30T11:49:49.567Z,191.73
2019-05-30T11:54:01.036Z,195.77
2019-05-30T11:58:12.319Z,196.95
2019-05-30T12:02:24.294Z,194.35
2019-05-30T12:06:34.516Z,192.45
2019-05-30T12:10:44.821Z,192.28
2019-05-30T12:14:55.257Z,194.87
2019-05-30T12:19:05.504Z,192.37
2019-05-30T12:23:15.807Z,193.05
2019-05-30T12:27:26.196Z,197.72
2019-05-30T12:31:36.632Z,199.70
2019-05-30T12:35:46.984Z,199.27
2019-05-30T12:39:58.577Z,193.50
2019-05-30T12:44:09.236Z,193.85
2019-05-30T12:48:19.544Z,195.32
2019-05-30T12:52:30.715Z,205.95
2019-05-30T12:56:42.500Z,199.30
2019-05-30T13:00:54.622Z,190.18
2019-05-30T13:05:07.186Z,192.45
2019-05-30T13:09:17.553Z,192.95
2019-05-30T13:13:27.810Z,195.32
2019-05-30T13:17:38.037Z,193.20
2019-05-30T13:21:48.270Z,193.65
2019-05-30T13:25:59.568Z,194.32
2019-05-30T13:30:12.107Z,194.57
2019-05-30T13:34:22.422Z,194.75
2019-05-30T13:38:32.724Z,194.10
2019-05-30T13:42:43.151Z,191.68
2019-05-30T13:46:53.388Z,193.55
2019-05-30T13:51:04.780Z,195.18
2019-05-30T13:55:15.563Z,199.23
2019-05-30T13:59:25.806Z,197.72
2019-05-30T14:03:36.130Z,200.85
2019-05-30T14:07:46.612Z,195.65
2019-05-30T14:11:56.950Z,208.10
2019-05-30T14:16:09.082Z,199.70
2019-05-30T14:20:19.842Z,199.17
2019-05-30T14:24:30.142Z,224.37
2019-05-30T14:28:40.708Z,201.45
2019-05-30T14:32:51.178Z,214.48
2019-05-30T14:37:02.390Z,196.02
2019-05-30T14:41:13.499Z,198.25
2019-05-30T14:45:24.185Z,197.20
2019-05-30T14:49:34.528Z,194.60
2019-05-30T14:53:44.862Z,193.43
2019-05-30T14:57:58.008Z,194.90
2019-05-30T15:02:07.164Z,196.75
2019-05-30T15:06:17.897Z,198.35
2019-05-30T15:10:28.432Z,198.28
2019-05-30T15:14:38.724Z,195.82
2019-05-30T15:18:49.174Z,193.63
2019-05-30T15:22:59.359Z,193.45
2019-05-30T15:27:10.070Z,190.18
2019-05-30T15:31:20.372Z,196.37
2019-05-30T15:35:30.876Z,194.80
2019-05-30T15:39:41.326Z,205.12
2019-05-30T15:43:51.716Z,201.65
2019-05-30T15:48:02.087Z,205.90
2019-05-30T15:52:13.329Z,193.75
2019-05-30T15:56:23.565Z,193.65
2019-05-30T16:00:36.918Z,199.90
2019-05-30T16:04:46.744Z,192.32
2019-05-30T16:08:57.081Z,196.63
2019-05-30T16:13:07.424Z,191.68
2019-05-30T16:17:17.814Z,194.55
2019-05-30T16:21:28.228Z,193.97
2019-05-30T16:25:38.532Z,195.03
2019-05-30T16:29:48.878Z,193.32
2019-05-30T16:33:59.220Z,196.68
2019-05-30T16:38:09.606Z,194.72
2019-05-30T16:42:20.274Z,192.20
2019-05-30T16:46:30.745Z,200.53
2019-05-30T16:50:41.085Z,195.50
2019-05-30T16:54:51.410Z,193.20
2019-05-30T16:59:01.822Z,192.32
2019-05-30T17:03:12.283Z,192.75
2019-05-30T17:07:23.371Z,202.00
2019-05-30T17:11:33.945Z,194.10
2019-05-30T17:15:44.314Z,192.50
2019-05-30T17:19:54.632Z,193.10
2019-05-30T17:24:05.035Z,192.60
2019-05-30T17:28:15.485Z,200.10
2019-05-30T17:32:25.956Z,198.02
2019-05-30T17:36:36.340Z,185.82
2019-05-30T17:40:49.818Z,194.25
2019-05-30T17:45:00.216Z,191.85
2019-05-30T17:49:12.089Z,190.35
2019-05-30T17:53:23.594Z,193.43
2019-05-30T17:57:34.283Z,188.03
2019-05-30T18:01:44.568Z,195.53
2019-05-30T18:05:54.870Z,198.28
2019-05-30T18:10:07.584Z,195.18
2019-05-30T18:14:17.828Z,198.23
2019-05-30T18:18:29.241Z,189.60
2019-05-30T18:22:39.666Z,187.95
2019-05-30T18:26:50.018Z,190.88
2019-05-30T18:31:00.324Z,195.55
2019-05-30T18:35:11.777Z,203.67
2019-05-30T18:39:22.395Z,202.25
2019-05-30T18:43:33.027Z,199.55
2019-05-30T18:47:43.587Z,203.12
2019-05-30T18:51:54.681Z,196.37
2019-05-30T18:56:07.791Z,195.87
2019-05-30T19:00:18.599Z,194.87
2019-05-30T19:04:29.592Z,193.05
2019-05-30T19:08:40.013Z,190.55
2019-05-30T19:12:50.284Z,190.43
2019-05-30T19:17:00.586Z,191.35
2019-05-30T19:21:10.907Z,190.97
2019-05-30T19:25:22.901Z,193.27
2019-05-30T19:29:33.223Z,186.65
2019-05-30T19:33:43.569Z,189.82
2019-05-30T19:37:53.931Z,189.85
2019-05-30T19:42:04.324Z,187.80
2019-05-30T19:46:15.318Z,186.40
2019-05-30T19:50:26.148Z,191.35
2019-05-30T19:54:37.250Z,194.43
2019-05-30T19:58:47.574Z,203.32
2019-05-30T20:02:58.201Z,196.60
2019-05-30T20:07:08.495Z,196.10
2019-05-30T20:11:19.122Z,191.35
2019-05-30T20:15:29.495Z,196.75
2019-05-30T20:19:40.038Z,198.57
2019-05-30T20:23:56.515Z,187.15
2019-05-30T20:28:02.349Z,188.18
2019-05-30T20:32:12.892Z,189.37
2019-05-30T20:36:23.194Z,186.88
2019-05-30T20:40:34.816Z,188.10
2019-05-30T20:44:47.110Z,195.40
2019-05-30T20:48:57.534Z,198.90
2019-05-30T20:53:07.780Z,191.95
2019-05-30T20:57:18.161Z,189.03
2019-05-30T21:01:28.504Z,187.85
2019-05-30T21:05:39.933Z,187.85
2019-05-30T21:09:50.677Z,186.73
2019-05-30T21:14:02.923Z,185.70
2019-05-30T21:23:24.557Z,186.15
2019-05-30T21:27:34.872Z,192.25
2019-05-30T21:31:45.646Z,186.12
2019-05-30T21:35:55.968Z,184.00
2019-05-30T21:40:10.266Z,183.65
2019-05-30T21:44:20.666Z,186.12
2019-05-30T21:48:31.090Z,186.95
2019-05-30T21:52:41.579Z,188.37
2019-05-30T21:56:51.958Z,186.32
2019-05-30T22:01:20.742Z,187.68
2019-05-30T22:05:30.937Z,189.07
2019-05-30T22:09:41.350Z,190.15
2019-05-30T22:13:52.037Z,186.97
2019-05-30T22:18:03.638Z,183.90
2019-05-30T22:22:13.864Z,194.85
2019-05-30T22:26:24.160Z,193.07
2019-05-30T22:30:34.460Z,192.03
2019-05-30T22:34:44.792Z,190.47
2019-05-30T22:38:55.114Z,194.47
2019-05-30T22:43:05.483Z,193.05
2019-05-30T22:47:16.141Z,195.90
2019-05-30T22:51:27.609Z,194.85
2019-05-30T22:55:37.982Z,193.35
2019-05-30T22:59:48.827Z,193.30
2019-05-30T23:03:59.178Z,192.82
2019-05-30T23:08:09.433Z,191.95
2019-05-30T23:12:19.627Z,195.10
2019-05-30T23:16:29.841Z,190.88
2019-05-30T23:20:40.093Z,189.67
2019-05-30T23:24:52.278Z,180.78
2019-05-30T23:29:02.931Z,187.47
2019-05-30T23:33:13.124Z,186.35
2019-05-30T23:37:23.355Z,186.07
2019-05-30T23:41:33.834Z,190.25
2019-05-30T23:45:44.202Z,191.37
2019-05-30T23:49:55.851Z,189.32
2019-05-30T23:54:06.428Z,188.47
2019-05-30T23:58:16.767Z,190.62
